Bookmark and Share
Track history (hours):
 

Gene Machine

More information available from US FCC via Universal Licensing System and Coast Guard Vessel Documentation Center.

Last reported at 2014-Apr-21 16:33 UTC. Time now 2014-Apr-24 22:03 UTC.
Position N 26°05' W 080°10'.

; draft 2.4 m.

Type: Pleasure craft. MMSI: 367481320.

NotesDate/timePositionNaut miles runAvg speedWind from/ knotsBaromVisibWave heightAir tempDewpointWater temp
2014-Apr-21 16:33N 26°05' W 080°10'2 2.0
2014-Apr-21 15:33N 26°07' W 080°09'2 2.4
2014-Apr-21 14:33N 26°07' W 080°06'0 0.0
2014-Apr-21 13:33N 26°07' W 080°06'0 0.0
2014-Apr-21 12:33N 26°07' W 080°06'0 0.0
2014-Apr-21 11:33N 26°07' W 080°06'0 0.0
2014-Apr-21 10:33N 26°07' W 080°06'0 0.0
2014-Apr-21 09:33N 26°07' W 080°06'0 0.0
2014-Apr-21 08:33N 26°07' W 080°06'0 0.0
2014-Apr-21 07:33N 26°07' W 080°06'0 0.0
2014-Apr-21 06:33N 26°07' W 080°06'0 0.0
2014-Apr-21 05:33N 26°07' W 080°06'0 0.0
2014-Apr-21 04:33N 26°07' W 080°06'0 0.0
2014-Apr-21 03:33N 26°07' W 080°06'0 0.0
2014-Apr-21 02:33N 26°07' W 080°06'0 0.0
2014-Apr-21 01:33N 26°07' W 080°06'0 0.0
2014-Apr-21 00:33N 26°07' W 080°06'0 0.0
2014-Apr-20 23:33N 26°07' W 080°06'0 0.0
2014-Apr-20 22:33N 26°07' W 080°06'0 0.0
2014-Apr-20 21:33N 26°07' W 080°06'0 0.5
2014-Apr-20 20:33N 26°07' W 080°07'5 4.9
2014-Apr-20 19:33N 26°11' W 080°06'2 2.3
2014-Apr-20 18:33N 26°14' W 080°06'5 5.4
2014-Apr-20 17:33N 26°08' W 080°06'2 1.8
2014-Apr-20 16:33N 26°07' W 080°06'0 0.0
2014-Apr-20 15:33N 26°07' W 080°06'0 0.0
2014-Apr-20 14:33N 26°07' W 080°06'0 0.0
2014-Apr-20 13:33N 26°07' W 080°06'0 0.0
2014-Apr-20 12:33N 26°07' W 080°06'0 0.0
2014-Apr-20 11:33N 26°07' W 080°06'0 0.0
2014-Apr-20 10:33N 26°07' W 080°06'0 0.0
2014-Apr-20 09:33N 26°07' W 080°06'0 0.0
2014-Apr-20 08:33N 26°07' W 080°06'0 0.0
2014-Apr-20 07:33N 26°07' W 080°06'0 0.0
2014-Apr-20 06:33N 26°07' W 080°06'0 0.0
2014-Apr-20 05:33N 26°07' W 080°06'0 0.0
2014-Apr-20 04:33N 26°07' W 080°06'0 0.0
2014-Apr-20 03:33N 26°07' W 080°06'0 0.0
2014-Apr-20 02:33N 26°07' W 080°06'0 0.0
2014-Apr-20 01:33N 26°07' W 080°06'1 0.7
2014-Apr-20 00:33N 26°06' W 080°07'5 5.4
2014-Apr-19 23:33N 26°01' W 080°07'4 4.3
2014-Apr-19 22:31N 25°57' W 080°08'4 4.2
2014-Apr-19 21:33N 26°01' W 080°07'5 4.5
2014-Apr-19 20:33N 26°05' W 080°07'2 1.6
2014-Apr-19 19:33N 26°07' W 080°06'0 0.0
2014-Apr-19 18:33N 26°07' W 080°06'0 0.0
2014-Apr-19 17:33N 26°07' W 080°06'0 0.0
2014-Apr-19 16:33N 26°07' W 080°06'0 0.0
2014-Apr-19 15:33N 26°07' W 080°06'0 0.0
2014-Apr-19 14:33N 26°07' W 080°06'0 0.0
2014-Apr-19 13:33N 26°07' W 080°06'0 0.0
2014-Apr-19 12:34N 26°07' W 080°06'0 0.0
2014-Apr-19 11:33N 26°07' W 080°06'0 0.0
2014-Apr-19 10:33N 26°07' W 080°06'0 0.0
2014-Apr-19 09:33N 26°07' W 080°06'0 0.0
2014-Apr-19 08:33N 26°07' W 080°06'0 0.0
2014-Apr-19 07:33N 26°07' W 080°06'0 0.0
2014-Apr-19 06:33N 26°07' W 080°06'0 0.0
2014-Apr-19 05:33N 26°07' W 080°06'0 0.0
2014-Apr-19 04:33N 26°07' W 080°06'0 0.0
2014-Apr-19 03:33N 26°07' W 080°06'0 0.0
2014-Apr-19 02:33N 26°07' W 080°06'0 0.0
2014-Apr-19 01:33N 26°07' W 080°06'0 0.0
2014-Apr-19 00:33N 26°07' W 080°06'0 0.0
2014-Apr-18 23:33N 26°07' W 080°06'0 0.0
2014-Apr-18 22:33N 26°07' W 080°06'0 0.0
2014-Apr-18 21:33N 26°07' W 080°06'0 0.0
2014-Apr-18 20:33N 26°07' W 080°06'0 0.0
2014-Apr-18 19:33N 26°07' W 080°06'0 0.0
2014-Apr-18 18:33N 26°07' W 080°06'0 0.0
2014-Apr-18 17:33N 26°07' W 080°06'7 6.8
2014-Apr-18 16:33N 26°13' W 080°04'2119.5
2014-Apr-18 15:30N 26°34' W 080°02'1110.8
2014-Apr-18 14:29N 26°45' W 080°03'  
2014-Apr-14 16:30N 26°41' W 080°01'1819.0
2014-Apr-14 15:33N 26°23' W 080°02'1818.0
2014-Apr-14 14:33N 26°06' W 080°05'4 3.6
2014-Apr-14 13:34N 26°07' W 080°09'2 0.9
2014-Apr-14 11:33N 26°05' W 080°10'0 0.0
2014-Apr-14 10:33N 26°05' W 080°10'0 0.0
2014-Apr-14 09:33N 26°05' W 080°10'0 0.0
2014-Apr-14 08:33N 26°05' W 080°10'0 0.0
2014-Apr-13 22:33N 26°05' W 080°10'0 0.0
2014-Apr-13 21:33N 26°05' W 080°10'0 0.0
2014-Apr-13 20:24N 26°05' W 080°10'0 0.0
2014-Apr-13 19:33N 26°05' W 080°10'0 0.0
2014-Apr-13 18:24N 26°05' W 080°10'0 0.0
2014-Apr-13 17:27N 26°05' W 080°10'0 0.0
2014-Apr-13 16:27N 26°05' W 080°10'0 0.0
2014-Apr-13 15:27N 26°05' W 080°10'0 0.0
2014-Apr-13 14:30N 26°05' W 080°10'0 0.0
2014-Apr-13 13:27N 26°05' W 080°10'0 0.0
2014-Apr-13 12:30N 26°05' W 080°10'0 0.0
2014-Apr-13 11:33N 26°05' W 080°10'0 0.0
2014-Apr-13 10:33N 26°05' W 080°10'0 0.0
2014-Apr-13 09:18N 26°05' W 080°10'0 0.0
2014-Apr-13 08:33N 26°05' W 080°10'0 0.0
2014-Apr-13 07:33N 26°05' W 080°10'0 0.0
2014-Apr-13 06:33N 26°05' W 080°10'0 0.0
2014-Apr-13 05:33N 26°05' W 080°10'0 0.0
2014-Apr-13 04:24N 26°05' W 080°10'0 0.0
2014-Apr-13 03:27N 26°05' W 080°10'0 0.0
2014-Apr-13 02:27N 26°05' W 080°10'0 0.0
2014-Apr-13 01:27N 26°05' W 080°10'0 0.0
2014-Apr-13 00:30N 26°05' W 080°10'0 0.0
2014-Apr-12 23:30N 26°05' W 080°10'0 0.0
2014-Apr-12 22:30N 26°05' W 080°10'0 0.0
2014-Apr-12 21:33N 26°05' W 080°10'0 0.0
2014-Apr-12 20:33N 26°05' W 080°10'0 0.0
2014-Apr-12 19:33N 26°05' W 080°10'0 0.0
2014-Apr-12 18:33N 26°05' W 080°10'0 0.0
2014-Apr-12 17:33N 26°05' W 080°10'0 0.0
2014-Apr-12 16:33N 26°05' W 080°10'0 0.0
2014-Apr-12 15:33N 26°05' W 080°10'0 0.0
2014-Apr-12 14:24N 26°05' W 080°10'0 0.0
2014-Apr-12 13:24N 26°05' W 080°10'0 0.0
2014-Apr-12 12:27N 26°05' W 080°10'0 0.0
2014-Apr-12 11:27N 26°05' W 080°10'0 0.0
2014-Apr-12 10:30N 26°05' W 080°10'0 0.0
2014-Apr-12 09:30N 26°05' W 080°10'0 0.0
2014-Apr-12 08:30N 26°05' W 080°10'0 0.0
2014-Apr-12 07:30N 26°05' W 080°10'0 0.0
2014-Apr-12 06:33N 26°05' W 080°10'0 0.0
2014-Apr-12 05:33N 26°05' W 080°10'0 0.0
2014-Apr-12 04:33N 26°05' W 080°10'0 0.0
2014-Apr-12 03:33N 26°05' W 080°10'0 0.0
2014-Apr-12 02:33N 26°05' W 080°10'0 0.0
2014-Apr-12 01:24N 26°05' W 080°10'0 0.0
2014-Apr-12 00:24N 26°05' W 080°10'0 0.0
2014-Apr-11 23:24N 26°05' W 080°10'0 0.0
2014-Apr-11 22:27N 26°05' W 080°10'0 0.0
2014-Apr-11 21:27N 26°05' W 080°10'0 0.0
2014-Apr-11 20:27N 26°05' W 080°10'0 0.0
2014-Apr-11 19:30N 26°05' W 080°10'0 0.0
2014-Apr-11 18:30N 26°05' W 080°10'0 0.0
2014-Apr-11 17:33N 26°05' W 080°10'0 0.0
2014-Apr-11 16:33N 26°05' W 080°10'  

Dump ship's entire track history

sailing weather and tide predictions

Gene Machine — WDF7123 — position and weather